createdAt,value
2023-01-04T00:01:34.693Z,69.09
2023-01-04T00:04:02.796Z,69.21
2023-01-04T00:06:30.736Z,69.16
2023-01-04T00:08:58.624Z,69.19
2023-01-04T00:11:27.874Z,69.27
2023-01-04T00:13:58.460Z,69.39
2023-01-04T00:16:28.121Z,69.49
2023-01-04T00:18:56.934Z,69.56
2023-01-04T00:21:27.758Z,69.77
2023-01-04T00:24:01.059Z,69.70
2023-01-04T00:26:31.873Z,69.75
2023-01-04T00:29:02.967Z,69.73
2023-01-04T00:31:31.664Z,69.99
2023-01-04T00:34:01.851Z,70.04
2023-01-04T00:36:30.307Z,70.04
2023-01-04T00:39:10.396Z,70.14
2023-01-04T00:41:59.250Z,70.15
2023-01-04T00:44:29.407Z,70.22
2023-01-04T00:46:58.533Z,70.24
2023-01-04T00:49:27.464Z,70.27
2023-01-04T00:51:55.827Z,70.45
2023-01-04T00:54:24.338Z,70.47
2023-01-04T00:56:52.452Z,70.47
2023-01-04T00:59:21.906Z,70.57
2023-01-04T01:01:51.034Z,70.65
2023-01-04T01:04:22.483Z,70.79
2023-01-04T01:06:52.011Z,70.78
2023-01-04T01:09:22.900Z,70.78
2023-01-04T01:11:52.816Z,70.75
2023-01-04T01:14:24.044Z,70.84
2023-01-04T01:16:55.798Z,70.94
2023-01-04T01:19:28.084Z,70.94
2023-01-04T01:21:57.477Z,70.94
2023-01-04T01:24:26.588Z,70.87
2023-01-04T01:26:55.636Z,70.98
2023-01-04T01:29:23.810Z,71.00
2023-01-04T01:31:51.811Z,71.02
2023-01-04T01:34:20.716Z,71.22
2023-01-04T01:36:48.986Z,71.29
2023-01-04T01:39:17.134Z,71.27
2023-01-04T01:41:45.168Z,71.27
2023-01-04T01:44:45.242Z,71.42
2023-01-04T01:47:21.372Z,71.51
2023-01-04T01:49:53.558Z,71.41
2023-01-04T01:52:30.352Z,71.42
2023-01-04T01:55:07.323Z,71.57
2023-01-04T01:57:38.026Z,71.68
2023-01-04T02:00:14.451Z,71.73
2023-01-04T02:03:18.242Z,71.64
2023-01-04T02:05:53.770Z,71.67
2023-01-04T02:08:25.003Z,71.78
2023-01-04T02:10:53.149Z,71.81
2023-01-04T02:13:47.201Z,71.93
2023-01-04T02:16:21.497Z,72.00
2023-01-04T02:19:23.901Z,72.01
2023-01-04T02:21:57.673Z,72.11
2023-01-04T02:24:40.572Z,72.11
2023-01-04T02:27:29.460Z,72.25
2023-01-04T02:30:22.251Z,72.28
2023-01-04T02:33:22.258Z,72.28
2023-01-04T02:36:12.848Z,72.24
2023-01-04T02:38:49.686Z,72.36
2023-01-04T02:41:36.808Z,72.27
2023-01-04T02:44:26.418Z,72.25
2023-01-04T02:47:04.091Z,72.44
2023-01-04T02:49:51.060Z,72.40
2023-01-04T02:52:22.309Z,72.35
2023-01-04T02:54:53.364Z,72.48
2023-01-04T02:57:36.978Z,72.53
2023-01-04T03:00:16.875Z,72.45
2023-01-04T03:03:23.831Z,72.39
2023-01-04T03:06:32.961Z,72.52
2023-01-04T03:09:19.774Z,72.53
2023-01-04T03:12:12.103Z,72.49
2023-01-04T03:15:00.478Z,72.55
2023-01-04T03:17:34.643Z,72.67
2023-01-04T03:20:03.547Z,72.63
2023-01-04T03:22:57.747Z,72.71
2023-01-04T03:25:46.871Z,72.75
2023-01-04T03:28:36.415Z,72.83
2023-01-04T03:31:35.364Z,72.90
2023-01-04T03:34:23.014Z,72.95
2023-01-04T03:37:17.348Z,73.09
2023-01-04T03:40:14.503Z,73.11
2023-01-04T03:43:14.089Z,73.20
2023-01-04T03:46:10.445Z,73.42
2023-01-04T03:48:50.170Z,73.31
2023-01-04T03:51:26.994Z,73.25
2023-01-04T03:54:00.946Z,73.43
2023-01-04T03:56:31.095Z,73.44
2023-01-04T03:58:59.993Z,73.50
2023-01-04T04:01:28.939Z,73.39
2023-01-04T04:04:15.726Z,73.57
2023-01-04T04:07:02.262Z,73.63
2023-01-04T04:09:30.321Z,73.57
2023-01-04T04:11:58.827Z,73.55
2023-01-04T04:14:26.802Z,73.69
2023-01-04T04:16:54.733Z,73.79
2023-01-04T04:19:22.704Z,73.73
2023-01-04T04:21:50.649Z,73.77
2023-01-04T04:24:22.364Z,73.87
2023-01-04T04:26:54.742Z,73.90
2023-01-04T04:29:24.235Z,73.90
2023-01-04T04:31:54.307Z,73.71
2023-01-04T04:34:22.317Z,73.88
2023-01-04T04:36:50.243Z,73.87
2023-01-04T04:39:18.274Z,73.80
2023-01-04T04:41:46.260Z,73.82
2023-01-04T04:44:16.976Z,74.03
2023-01-04T04:46:46.424Z,74.08
2023-01-04T04:49:15.827Z,74.07
2023-01-04T04:51:45.316Z,73.93
2023-01-04T04:54:19.131Z,74.02
2023-01-04T04:56:48.480Z,74.07
2023-01-04T04:59:16.718Z,74.17
2023-01-04T05:01:44.879Z,74.31
2023-01-04T05:04:16.651Z,74.42
2023-01-04T05:06:49.736Z,74.38
2023-01-04T05:09:17.691Z,74.31
2023-01-04T05:12:03.949Z,74.44
2023-01-04T05:14:31.888Z,74.22
2023-01-04T05:16:59.992Z,74.27
2023-01-04T05:19:28.019Z,74.50
2023-01-04T05:21:55.906Z,74.50
2023-01-04T05:24:23.902Z,74.41
2023-01-04T05:26:51.785Z,74.36
2023-01-04T05:29:38.336Z,74.39
2023-01-04T05:32:06.406Z,74.32
2023-01-04T05:34:34.319Z,74.44
2023-01-04T05:37:02.259Z,74.39
2023-01-04T05:39:31.082Z,74.49
2023-01-04T05:42:17.792Z,74.41
2023-01-04T05:44:45.689Z,74.63
2023-01-04T05:47:15.334Z,74.73
2023-01-04T05:49:44.008Z,74.78
2023-01-04T05:52:11.936Z,74.76
2023-01-04T05:54:40.336Z,74.85
2023-01-04T05:57:08.927Z,74.89
2023-01-04T05:59:41.553Z,74.86
2023-01-04T06:02:40.358Z,75.04
2023-01-04T06:05:10.038Z,75.01
2023-01-04T06:07:39.592Z,75.06
2023-01-04T06:10:09.321Z,75.11
2023-01-04T06:12:37.710Z,75.21
2023-01-04T06:15:07.118Z,75.05
2023-01-04T06:17:35.373Z,75.26
2023-01-04T06:20:05.020Z,75.20
2023-01-04T06:22:33.594Z,75.28
2023-01-04T06:25:02.293Z,75.37
2023-01-04T06:27:30.392Z,75.31
2023-01-04T06:29:58.311Z,75.34
2023-01-04T06:32:26.189Z,75.43
2023-01-04T06:34:54.084Z,75.44
2023-01-04T06:37:24.062Z,75.45
2023-01-04T06:39:53.190Z,75.57
2023-01-04T06:42:39.590Z,75.55
2023-01-04T06:45:07.884Z,75.46
2023-01-04T06:47:36.697Z,75.44
2023-01-04T06:50:05.154Z,75.55
2023-01-04T06:52:33.121Z,75.71
2023-01-04T06:55:01.033Z,76.02
2023-01-04T06:57:30.874Z,76.76
2023-01-04T06:59:58.858Z,76.67
2023-01-04T07:02:27.014Z,76.54
2023-01-04T07:04:55.120Z,76.52
2023-01-04T07:07:23.047Z,76.43
2023-01-04T07:09:50.918Z,76.79
2023-01-04T07:12:18.901Z,76.59
2023-01-04T07:14:46.882Z,76.44
2023-01-04T07:17:14.912Z,76.48
2023-01-04T07:19:42.865Z,76.52
2023-01-04T07:22:10.738Z,76.58
2023-01-04T07:24:38.703Z,76.61
2023-01-04T07:27:06.727Z,76.49
2023-01-04T07:29:34.704Z,76.56
2023-01-04T07:32:02.738Z,76.70
2023-01-04T07:34:31.420Z,76.63
2023-01-04T07:36:59.318Z,76.71
2023-01-04T07:39:27.196Z,76.61
2023-01-04T07:41:55.275Z,76.62
2023-01-04T07:44:27.712Z,76.56
2023-01-04T07:46:57.083Z,76.62
2023-01-04T07:49:25.097Z,76.65
2023-01-04T07:51:53.016Z,76.57
2023-01-04T07:54:21.590Z,76.80
2023-01-04T07:56:49.517Z,76.86
2023-01-04T07:59:20.788Z,76.70
2023-01-04T08:01:49.572Z,77.92
2023-01-04T08:04:18.199Z,80.00
2023-01-04T08:06:49.222Z,78.20
2023-01-04T08:09:18.031Z,77.56
2023-01-04T08:11:47.128Z,77.87
2023-01-04T08:14:15.004Z,77.90
2023-01-04T08:16:43.649Z,77.13
2023-01-04T08:19:15.785Z,76.31
2023-01-04T08:21:44.768Z,76.05
2023-01-04T08:24:15.379Z,75.84
2023-01-04T08:26:44.472Z,75.76
2023-01-04T08:29:13.527Z,75.70
2023-01-04T08:31:42.018Z,75.64
2023-01-04T08:34:10.641Z,75.13
2023-01-04T08:36:50.630Z,75.03
2023-01-04T08:39:19.017Z,75.05
2023-01-04T08:42:10.837Z,74.94
2023-01-04T08:44:41.746Z,74.96
2023-01-04T08:47:09.667Z,74.79
2023-01-04T08:49:37.636Z,74.61
2023-01-04T08:52:05.723Z,74.32
2023-01-04T08:54:33.727Z,74.23
2023-01-04T08:57:01.576Z,74.18
2023-01-04T08:59:29.975Z,74.32
2023-01-04T09:02:04.964Z,74.18
2023-01-04T09:04:33.827Z,74.18
2023-01-04T09:07:01.773Z,74.08
2023-01-04T09:09:30.236Z,73.97
2023-01-04T09:11:59.734Z,74.05
2023-01-04T09:14:27.987Z,73.86
2023-01-04T09:16:56.003Z,73.79
2023-01-04T09:19:23.996Z,73.67
2023-01-04T09:21:52.067Z,73.69
2023-01-04T09:24:20.133Z,73.51
2023-01-04T09:26:48.237Z,73.31
2023-01-04T09:29:16.460Z,73.37
2023-01-04T09:31:44.523Z,73.20
2023-01-04T09:34:15.115Z,73.14
2023-01-04T09:36:45.946Z,72.97
2023-01-04T09:39:21.527Z,72.58
2023-01-04T09:41:58.024Z,72.62
2023-01-04T09:45:03.335Z,72.57
2023-01-04T09:47:45.024Z,72.31
2023-01-04T09:50:19.038Z,72.17
2023-01-04T09:53:07.491Z,72.10
2023-01-04T09:55:41.259Z,72.14
2023-01-04T09:58:18.034Z,72.18
2023-01-04T10:00:51.517Z,71.96
2023-01-04T10:03:25.538Z,71.84
2023-01-04T10:05:55.805Z,71.65
2023-01-04T10:08:24.384Z,71.54
2023-01-04T10:11:11.290Z,71.49
2023-01-04T10:14:06.120Z,71.42
2023-01-04T10:17:11.957Z,71.25
2023-01-04T10:21:12.892Z,71.08
2023-01-04T10:22:47.187Z,71.20
2023-01-04T10:25:15.103Z,70.89
2023-01-04T10:28:06.917Z,70.90
2023-01-04T10:30:43.832Z,70.73
2023-01-04T10:33:24.376Z,70.68
2023-01-04T10:35:53.124Z,70.69
2023-01-04T10:38:25.819Z,70.63
2023-01-04T10:40:55.392Z,70.61
2023-01-04T10:44:12.154Z,70.67
2023-01-04T10:46:47.886Z,70.53
2023-01-04T10:49:21.843Z,70.73
2023-01-04T10:51:57.039Z,70.53
2023-01-04T10:54:39.550Z,70.45
2023-01-04T10:57:36.503Z,70.25
2023-01-04T11:00:11.485Z,70.16
2023-01-04T11:02:57.234Z,70.15
2023-01-04T11:05:30.758Z,69.99
2023-01-04T11:08:11.083Z,69.88
2023-01-04T11:10:48.361Z,69.92
2023-01-04T11:13:16.454Z,69.80
2023-01-04T11:15:45.560Z,69.67
2023-01-04T11:18:15.109Z,69.69
2023-01-04T11:20:43.253Z,69.53
2023-01-04T11:23:20.410Z,69.89
2023-01-04T11:26:00.806Z,69.77
2023-01-04T11:28:36.340Z,69.83
2023-01-04T11:31:10.441Z,69.92
2023-01-04T11:33:51.968Z,69.93
2023-01-04T11:36:31.937Z,69.70
2023-01-04T11:39:00.241Z,69.75
2023-01-04T11:41:28.992Z,69.74
2023-01-04T11:44:06.859Z,69.93
2023-01-04T11:46:35.319Z,69.96
2023-01-04T11:49:03.336Z,69.96
2023-01-04T11:51:31.825Z,69.99
2023-01-04T11:54:05.193Z,69.79
2023-01-04T11:56:36.151Z,69.73
2023-01-04T11:59:25.210Z,69.74
2023-01-04T12:02:42.679Z,69.90
2023-01-04T12:05:28.780Z,69.85
2023-01-04T12:07:59.453Z,69.85
2023-01-04T12:10:28.704Z,69.67
2023-01-04T12:13:01.224Z,69.72
2023-01-04T12:15:53.701Z,69.73
2023-01-04T12:18:28.066Z,69.56
2023-01-04T12:20:57.297Z,69.62
2023-01-04T12:23:25.254Z,69.52
2023-01-04T12:25:54.381Z,69.51
2023-01-04T12:28:40.010Z,69.56
2023-01-04T12:31:21.040Z,69.51
2023-01-04T12:33:58.138Z,69.32
2023-01-04T12:36:38.345Z,69.44
2023-01-04T12:39:15.068Z,69.42
2023-01-04T12:42:01.343Z,69.60
2023-01-04T12:44:46.866Z,69.65
2023-01-04T12:47:36.389Z,69.85
2023-01-04T12:50:15.122Z,69.95
2023-01-04T12:53:19.541Z,70.07
2023-01-04T12:55:44.147Z,70.12
2023-01-04T12:58:42.342Z,70.28
2023-01-04T13:01:28.384Z,70.03
2023-01-04T13:04:05.689Z,69.97
2023-01-04T13:06:42.751Z,70.04
2023-01-04T13:09:24.907Z,70.12
2023-01-04T13:11:56.163Z,70.04
2023-01-04T13:14:36.382Z,70.01
2023-01-04T13:17:16.636Z,69.93
2023-01-04T13:19:45.324Z,69.85
2023-01-04T13:22:29.174Z,70.06
2023-01-04T13:25:00.235Z,70.05
2023-01-04T13:27:28.426Z,69.92
2023-01-04T13:29:57.080Z,69.95
2023-01-04T13:32:31.174Z,69.90
2023-01-04T13:35:09.887Z,69.79
2023-01-04T13:37:45.047Z,69.83
2023-01-04T13:40:21.838Z,69.84
2023-01-04T13:43:10.653Z,69.84
2023-01-04T13:46:03.827Z,69.60
2023-01-04T13:48:43.389Z,69.87
2023-01-04T13:51:11.214Z,69.74
2023-01-04T13:53:40.041Z,69.81
2023-01-04T13:56:22.002Z,69.67
2023-01-04T13:58:50.321Z,69.64
2023-01-04T14:01:27.835Z,69.77
2023-01-04T14:04:02.325Z,69.70
2023-01-04T14:06:48.617Z,69.76
2023-01-04T14:09:25.051Z,69.93
2023-01-04T14:12:06.195Z,69.85
2023-01-04T14:14:58.142Z,70.13
2023-01-04T14:20:36.733Z,70.26
2023-01-04T14:23:05.188Z,70.44
2023-01-04T14:25:37.093Z,70.53
2023-01-04T14:28:24.896Z,70.65
2023-01-04T14:30:56.364Z,70.84
2023-01-04T14:33:33.490Z,70.75
2023-01-04T14:36:09.487Z,70.86
2023-01-04T14:38:59.469Z,70.96
2023-01-04T14:41:43.591Z,70.93
2023-01-04T14:44:11.745Z,70.92
2023-01-04T14:46:41.960Z,70.78
2023-01-04T14:49:10.401Z,70.84
2023-01-04T14:51:48.628Z,70.88
2023-01-04T14:54:24.251Z,70.93
2023-01-04T14:56:55.348Z,70.89
2023-01-04T14:59:24.221Z,70.89
2023-01-04T15:01:57.543Z,70.86
2023-01-04T15:04:25.713Z,70.80
2023-01-04T15:06:59.893Z,70.87
2023-01-04T15:09:29.173Z,70.73
2023-01-04T15:11:57.653Z,70.72
2023-01-04T15:14:25.708Z,70.68
2023-01-04T15:16:53.683Z,70.78
2023-01-04T15:19:22.053Z,70.83
2023-01-04T15:21:49.942Z,70.93
2023-01-04T15:24:17.909Z,70.89
2023-01-04T15:26:45.895Z,70.90
2023-01-04T15:29:13.988Z,70.81
2023-01-04T15:31:43.840Z,70.90
2023-01-04T15:34:12.048Z,70.85
2023-01-04T15:36:41.232Z,70.98
2023-01-04T15:39:15.709Z,70.93
2023-01-04T15:42:02.783Z,70.91
2023-01-04T15:44:30.739Z,70.94
2023-01-04T15:46:59.786Z,70.83
2023-01-04T15:49:30.631Z,70.92
2023-01-04T15:51:58.741Z,70.97
2023-01-04T15:54:27.914Z,70.88
2023-01-04T15:56:56.205Z,71.12
2023-01-04T15:59:24.513Z,71.20
2023-01-04T16:01:52.608Z,71.15
2023-01-04T16:04:20.722Z,71.11
2023-01-04T16:06:48.721Z,71.25
2023-01-04T16:09:16.625Z,71.33
2023-01-04T16:12:02.951Z,71.48
2023-01-04T16:14:30.871Z,71.49
2023-01-04T16:16:58.758Z,71.56
2023-01-04T16:19:27.598Z,71.61
2023-01-04T16:21:56.211Z,71.61
2023-01-04T16:27:12.526Z,71.82
2023-01-04T16:29:40.478Z,71.87
2023-01-04T16:32:10.498Z,72.04
2023-01-04T16:34:40.416Z,72.24
2023-01-04T16:37:08.449Z,72.38
2023-01-04T16:42:24.304Z,72.41
2023-01-04T16:44:52.265Z,72.31
2023-01-04T16:47:20.226Z,72.41
2023-01-04T16:49:52.748Z,72.51
2023-01-04T16:52:20.956Z,72.36
2023-01-04T16:54:49.206Z,72.28
2023-01-04T16:57:17.106Z,72.39
2023-01-04T16:59:44.984Z,72.44
2023-01-04T17:02:13.102Z,72.32
2023-01-04T17:04:41.145Z,72.52
2023-01-04T17:07:09.175Z,72.43
2023-01-04T17:09:41.215Z,72.58
2023-01-04T17:12:45.538Z,72.73
2023-01-04T17:17:45.139Z,72.82
2023-01-04T17:20:13.215Z,72.88
2023-01-04T17:22:41.033Z,72.94
2023-01-04T17:25:09.026Z,73.07
2023-01-04T17:27:36.948Z,72.97
2023-01-04T17:30:05.493Z,72.99
2023-01-04T17:32:33.484Z,72.96
2023-01-04T17:35:01.424Z,73.10
2023-01-04T17:37:29.394Z,73.19
2023-01-04T17:39:57.422Z,73.17
2023-01-04T17:42:25.302Z,73.11
2023-01-04T17:44:53.599Z,73.17
2023-01-04T17:47:21.823Z,73.26
2023-01-04T17:49:49.877Z,73.07
2023-01-04T17:52:24.351Z,73.07
2023-01-04T17:54:56.898Z,73.04
2023-01-04T17:57:24.836Z,72.95
2023-01-04T17:59:52.737Z,73.17
2023-01-04T18:02:20.650Z,73.18
2023-01-04T18:04:48.584Z,73.15
2023-01-04T18:07:16.557Z,73.25
2023-01-04T18:09:44.423Z,73.32
2023-01-04T18:12:12.351Z,73.34
2023-01-04T18:14:40.348Z,73.32
2023-01-04T18:17:08.297Z,73.50
2023-01-04T18:19:37.422Z,73.56
2023-01-04T18:22:07.151Z,73.63
2023-01-04T18:24:37.161Z,73.40
2023-01-04T18:27:25.635Z,73.42
2023-01-04T18:29:55.632Z,73.42
2023-01-04T18:32:25.665Z,73.23
2023-01-04T18:34:53.740Z,73.15
2023-01-04T18:37:22.190Z,73.21
2023-01-04T18:39:50.307Z,73.19
2023-01-04T18:42:18.450Z,73.34
2023-01-04T18:44:49.446Z,73.41
2023-01-04T18:47:20.107Z,73.57
2023-01-04T18:49:49.544Z,73.49
2023-01-04T18:52:18.441Z,73.52
2023-01-04T18:54:48.083Z,73.47
2023-01-04T18:57:16.293Z,73.57
2023-01-04T18:59:44.323Z,73.60
2023-01-04T19:02:20.873Z,73.51
2023-01-04T19:04:49.343Z,73.62
2023-01-04T19:07:17.520Z,73.57
2023-01-04T19:09:45.466Z,73.59
2023-01-04T19:12:13.693Z,73.54
2023-01-04T19:14:42.065Z,73.63
2023-01-04T19:17:11.007Z,73.62
2023-01-04T19:19:39.043Z,73.67
2023-01-04T19:22:06.989Z,73.78
2023-01-04T19:24:35.012Z,73.80
2023-01-04T19:27:03.344Z,73.81
2023-01-04T19:29:34.042Z,73.84
2023-01-04T19:32:02.830Z,73.71
2023-01-04T19:34:30.879Z,73.72
2023-01-04T19:36:59.366Z,73.86
2023-01-04T19:39:27.333Z,73.91
2023-01-04T19:41:55.544Z,73.88
2023-01-04T19:44:23.444Z,73.89
2023-01-04T19:46:51.336Z,73.74
2023-01-04T19:49:19.427Z,73.88
2023-01-04T19:51:49.106Z,73.86
2023-01-04T19:54:24.749Z,74.08
2023-01-04T19:56:54.077Z,74.14
2023-01-04T19:59:22.373Z,74.23
2023-01-04T20:01:50.518Z,74.19
2023-01-04T20:04:18.564Z,74.20
2023-01-04T20:06:46.528Z,74.28
2023-01-04T20:09:14.593Z,74.42
2023-01-04T20:11:42.456Z,74.65
2023-01-04T20:14:10.323Z,74.47
2023-01-04T20:16:38.205Z,74.50
2023-01-04T20:19:06.134Z,74.47
2023-01-04T20:21:34.058Z,74.40
2023-01-04T20:24:02.396Z,74.52
2023-01-04T20:26:30.317Z,74.52
2023-01-04T20:28:58.364Z,74.51
2023-01-04T20:31:26.292Z,74.48
2023-01-04T20:33:55.917Z,74.51
2023-01-04T20:36:31.457Z,74.55
2023-01-04T20:39:02.203Z,74.52
2023-01-04T20:41:31.732Z,74.34
2023-01-04T20:44:01.481Z,74.37
2023-01-04T20:46:33.800Z,74.51
2023-01-04T20:49:02.947Z,74.52
2023-01-04T20:51:30.982Z,74.57
2023-01-04T20:54:01.779Z,74.35
2023-01-04T20:56:32.414Z,74.50
2023-01-04T20:59:00.737Z,74.52
2023-01-04T21:01:28.739Z,74.56
2023-01-04T21:03:56.771Z,74.50
2023-01-04T21:06:25.075Z,74.62
2023-01-04T21:08:55.121Z,74.67
2023-01-04T21:11:23.695Z,74.56
2023-01-04T21:13:52.778Z,74.41
2023-01-04T21:16:20.864Z,74.51
2023-01-04T21:18:48.796Z,74.49
2023-01-04T21:21:18.325Z,74.59
2023-01-04T21:23:48.766Z,74.38
2023-01-04T21:26:20.235Z,74.39
2023-01-04T21:28:48.343Z,74.49
2023-01-04T21:31:19.322Z,74.32
2023-01-04T21:33:47.971Z,74.31
2023-01-04T21:36:24.085Z,74.28
2023-01-04T21:38:58.023Z,74.28
2023-01-04T21:41:26.329Z,74.17
2023-01-04T21:43:57.744Z,74.07
2023-01-04T21:46:26.833Z,74.15
2023-01-04T21:49:01.496Z,74.25
2023-01-04T21:51:30.295Z,74.20
2023-01-04T21:53:58.817Z,74.01
2023-01-04T21:56:26.758Z,73.96
2023-01-04T21:58:54.761Z,74.00
2023-01-04T22:01:34.102Z,73.93
2023-01-04T22:04:04.234Z,74.05
2023-01-04T22:06:34.170Z,73.98
2023-01-04T22:09:02.152Z,73.86
2023-01-04T22:11:30.146Z,73.79
2023-01-04T22:13:58.058Z,73.81
2023-01-04T22:16:26.032Z,73.88
2023-01-04T22:18:54.029Z,73.96
2023-01-04T22:21:24.984Z,73.95
2023-01-04T22:23:54.073Z,73.87
2023-01-04T22:26:22.404Z,73.84
2023-01-04T22:28:50.239Z,73.82
2023-01-04T22:31:18.194Z,73.94
2023-01-04T22:33:46.112Z,73.95
2023-01-04T22:36:22.254Z,74.11
2023-01-04T22:38:54.095Z,74.26
2023-01-04T22:41:25.275Z,74.10
2023-01-04T22:43:58.214Z,74.21
2023-01-04T22:46:27.865Z,74.02
2023-01-04T22:48:56.355Z,73.80
2023-01-04T22:51:27.520Z,73.77
2023-01-04T22:53:57.293Z,73.74
2023-01-04T22:56:25.615Z,73.84
2023-01-04T22:58:55.635Z,73.68
2023-01-04T23:01:26.957Z,73.58
2023-01-04T23:03:56.577Z,73.62
2023-01-04T23:06:26.000Z,73.54
2023-01-04T23:08:59.514Z,73.64
2023-01-04T23:11:28.790Z,73.46
2023-01-04T23:13:57.028Z,73.55
2023-01-04T23:16:31.915Z,73.50
2023-01-04T23:19:05.671Z,73.34
2023-01-04T23:21:34.203Z,73.53
2023-01-04T23:24:04.748Z,73.37
2023-01-04T23:26:33.676Z,73.48
2023-01-04T23:29:02.389Z,73.33
2023-01-04T23:31:32.135Z,73.26
2023-01-04T23:34:02.611Z,73.22
2023-01-04T23:36:33.780Z,73.21
2023-01-04T23:39:06.881Z,73.21
2023-01-04T23:41:47.691Z,73.14
2023-01-04T23:44:28.021Z,73.16
2023-01-04T23:47:01.333Z,73.19
2023-01-04T23:49:31.429Z,73.05
2023-01-04T23:52:00.300Z,73.10
2023-01-04T23:54:29.011Z,73.10
2023-01-04T23:56:57.470Z,73.01
2023-01-04T23:59:25.826Z,72.87
